Terminal Aerodrome Forecast
Issued by NWS Mt. Holly, NJ

Home | Current Version | Previous Version | Text Only | Print | Product List | Glossary On
Versions: 1 2 3 4 5 6 7 8 9 10 11 12 13 14 15 16 17 18 19 20 21 22 23
866
FTUS41 KPHI 071918 AAA
TAFABE
TAF AMD
KABE 071918Z 0719/0818 30006KT P6SM FEW030
     FM080700 28003KT P6SM BKN120
     FM081500 26008KT P6SM BKN070=

USA.gov is the U.S. government's official web portal to all federal, state and local government web resources and services.